createdAt,value
2023-05-02T00:02:27.093Z,60.04
2023-05-02T00:05:31.154Z,59.58
2023-05-02T00:08:34.628Z,59.56
2023-05-02T00:11:37.487Z,59.37
2023-05-02T00:14:41.154Z,59.95
2023-05-02T00:17:44.278Z,59.49
2023-05-02T00:20:47.619Z,59.08
2023-05-02T00:23:53.710Z,59.51
2023-05-02T00:26:56.783Z,59.15
2023-05-02T00:30:00.985Z,59.82
2023-05-02T00:33:07.095Z,59.90
2023-05-02T00:36:17.851Z,59.63
2023-05-02T00:39:21.576Z,59.43
2023-05-02T00:42:24.694Z,58.60
2023-05-02T00:45:27.779Z,59.17
2023-05-02T00:48:31.251Z,59.44
2023-05-02T00:51:34.895Z,59.85
2023-05-02T00:54:39.897Z,60.89
2023-05-02T00:57:43.299Z,60.03
2023-05-02T01:01:12.677Z,58.82
2023-05-02T01:04:38.413Z,60.37
2023-05-02T01:08:12.483Z,59.63
2023-05-02T01:11:21.562Z,61.37
2023-05-02T01:14:29.810Z,60.68
2023-05-02T01:17:35.184Z,60.99
2023-05-02T01:20:43.088Z,61.26
2023-05-02T01:24:14.350Z,60.61
2023-05-02T01:27:58.642Z,60.99
2023-05-02T01:31:04.501Z,60.77
2023-05-02T01:34:10.492Z,60.38
2023-05-02T01:37:17.882Z,60.25
2023-05-02T01:40:23.049Z,60.19
2023-05-02T01:43:26.760Z,60.54
2023-05-02T01:46:36.798Z,60.55
2023-05-02T01:49:42.762Z,60.45
2023-05-02T01:52:49.871Z,60.64
2023-05-02T01:55:56.492Z,60.77
2023-05-02T01:59:02.915Z,61.12
2023-05-02T02:02:08.731Z,60.31
2023-05-02T02:05:14.376Z,59.90
2023-05-02T02:08:17.748Z,60.26
2023-05-02T02:11:26.719Z,59.47
2023-05-02T02:14:37.346Z,59.42
2023-05-02T02:17:44.273Z,59.23
2023-05-02T02:20:50.341Z,59.70
2023-05-02T02:23:56.451Z,59.88
2023-05-02T02:26:59.561Z,59.42
2023-05-02T02:30:04.084Z,59.45
2023-05-02T02:33:07.487Z,59.42
2023-05-02T02:36:43.802Z,60.39
2023-05-02T02:40:24.294Z,60.15
2023-05-02T02:43:42.722Z,59.74
2023-05-02T02:46:58.421Z,60.48
2023-05-02T02:50:36.706Z,60.92
2023-05-02T02:53:52.126Z,60.96
2023-05-02T02:57:08.171Z,60.72
2023-05-02T03:00:21.460Z,60.64
2023-05-02T03:03:29.285Z,60.59
2023-05-02T03:06:33.030Z,61.39
2023-05-02T03:09:47.612Z,61.88
2023-05-02T03:12:56.226Z,61.70
2023-05-02T03:16:12.706Z,62.18
2023-05-02T03:19:16.304Z,62.16
2023-05-02T03:22:19.386Z,62.84
2023-05-02T03:25:22.433Z,62.63
2023-05-02T03:28:26.369Z,62.83
2023-05-02T03:31:30.696Z,62.73
2023-05-02T03:34:34.820Z,63.39
2023-05-02T03:37:37.975Z,64.82
2023-05-02T03:40:41.813Z,64.95
2023-05-02T03:43:48.342Z,64.28
2023-05-02T03:46:54.980Z,64.83
2023-05-02T03:49:59.532Z,65.08
2023-05-02T03:53:04.245Z,65.57
2023-05-02T03:56:23.388Z,65.44
2023-05-02T03:59:37.512Z,65.01
2023-05-02T04:02:50.963Z,65.33
2023-05-02T04:05:57.945Z,65.75
2023-05-02T04:09:01.476Z,66.08
2023-05-02T04:12:11.724Z,64.92
2023-05-02T04:15:19.277Z,64.98
2023-05-02T04:18:28.786Z,64.44
2023-05-02T04:21:32.100Z,64.58
2023-05-02T04:24:36.099Z,64.36
2023-05-02T04:27:39.484Z,64.02
2023-05-02T04:30:48.811Z,62.96
2023-05-02T04:33:52.487Z,62.92
2023-05-02T04:36:59.275Z,63.15
2023-05-02T04:40:03.857Z,63.71
2023-05-02T04:43:10.983Z,63.35
2023-05-02T04:46:22.249Z,62.53
2023-05-02T04:49:25.625Z,62.09
2023-05-02T04:52:30.148Z,61.36
2023-05-02T04:55:33.358Z,60.09
2023-05-02T04:58:36.488Z,58.70
2023-05-02T05:01:45.460Z,58.37
2023-05-02T05:04:49.373Z,57.87
2023-05-02T05:07:56.072Z,58.36
2023-05-02T05:11:01.931Z,58.47
2023-05-02T05:14:08.966Z,58.06
2023-05-02T05:17:14.814Z,57.50
2023-05-02T05:20:18.732Z,57.40
2023-05-02T05:23:22.971Z,56.75
2023-05-02T05:26:27.013Z,55.65
2023-05-02T05:29:34.253Z,55.07
2023-05-02T05:32:37.288Z,54.72
2023-05-02T05:35:40.663Z,53.21
2023-05-02T05:38:43.977Z,53.62
2023-05-02T05:41:47.832Z,53.74
2023-05-02T05:44:51.661Z,53.83
2023-05-02T05:47:56.003Z,52.13
2023-05-02T05:51:06.047Z,52.51
2023-05-02T05:54:09.587Z,52.33
2023-05-02T05:57:14.119Z,51.60
2023-05-02T06:00:19.270Z,51.33
2023-05-02T06:03:26.736Z,50.95
2023-05-02T06:06:30.850Z,49.86
2023-05-02T06:09:34.037Z,49.04
2023-05-02T06:12:37.659Z,48.12
2023-05-02T06:15:42.659Z,48.01
2023-05-02T06:18:47.690Z,48.75
2023-05-02T06:21:51.096Z,47.68
2023-05-02T06:24:54.305Z,48.62
2023-05-02T06:27:57.361Z,48.39
2023-05-02T06:31:02.505Z,48.76
2023-05-02T06:34:05.806Z,50.43
2023-05-02T06:37:08.835Z,48.84
2023-05-02T06:40:12.319Z,47.21
2023-05-02T06:43:16.268Z,47.16
2023-05-02T06:46:20.975Z,48.04
2023-05-02T06:49:24.430Z,48.85
2023-05-02T06:52:31.373Z,49.48
2023-05-02T06:55:34.976Z,49.23
2023-05-02T06:58:38.680Z,49.34
2023-05-02T07:01:42.152Z,47.01
2023-05-02T07:04:45.525Z,45.29
2023-05-02T07:07:49.659Z,45.21
2023-05-02T07:10:53.432Z,44.72
2023-05-02T07:13:56.462Z,43.93
2023-05-02T07:17:00.048Z,43.58
2023-05-02T07:20:04.178Z,46.38
2023-05-02T07:23:07.664Z,44.83
2023-05-02T07:26:11.070Z,45.59
2023-05-02T07:29:15.570Z,48.12
2023-05-02T07:32:22.012Z,45.50
2023-05-02T07:35:25.917Z,42.68
2023-05-02T07:38:29.182Z,44.95
2023-05-02T07:41:32.853Z,46.69
2023-05-02T07:44:36.989Z,46.33
2023-05-02T07:47:40.194Z,44.05
2023-05-02T07:50:44.323Z,44.68
2023-05-02T07:53:52.043Z,43.45
2023-05-02T07:56:58.376Z,44.81
2023-05-02T08:00:02.044Z,44.27
2023-05-02T08:03:20.094Z,43.21
2023-05-02T08:06:23.464Z,42.93
2023-05-02T08:09:26.702Z,45.56
2023-05-02T08:12:29.962Z,42.04
2023-05-02T08:15:33.309Z,42.07
2023-05-02T08:18:36.556Z,42.22
2023-05-02T08:21:40.370Z,45.02
2023-05-02T08:24:44.139Z,41.42
2023-05-02T08:27:47.399Z,42.23
2023-05-02T08:30:51.050Z,45.79
2023-05-02T08:33:54.281Z,42.07
2023-05-02T08:37:00.294Z,41.70
2023-05-02T08:40:06.627Z,43.86
2023-05-02T08:43:13.979Z,42.88
2023-05-02T08:46:17.943Z,40.65
2023-05-02T08:49:22.655Z,41.94
2023-05-02T08:52:28.504Z,42.41
2023-05-02T08:55:35.581Z,41.22
2023-05-02T08:58:41.701Z,40.52
2023-05-02T09:01:52.920Z,39.60
2023-05-02T09:05:02.311Z,40.42
2023-05-02T09:21:22.482Z,38.96
2023-05-02T09:24:26.054Z,42.07
2023-05-02T09:27:29.309Z,41.84
2023-05-02T09:30:33.053Z,41.99
2023-05-02T09:33:37.728Z,38.87
2023-05-02T09:36:45.371Z,39.70
2023-05-02T09:40:06.197Z,39.22
2023-05-02T09:43:19.266Z,40.88
2023-05-02T09:46:22.926Z,39.13
2023-05-02T09:49:58.486Z,39.50
2023-05-02T09:53:05.099Z,39.09
2023-05-02T09:56:08.616Z,38.75
2023-05-02T09:59:16.345Z,41.21
2023-05-02T10:02:22.022Z,41.01
2023-05-02T10:05:26.309Z,41.64
2023-05-02T10:08:29.403Z,39.45
2023-05-02T10:11:33.680Z,40.22
2023-05-02T10:14:44.087Z,40.62
2023-05-02T10:17:50.954Z,37.56
2023-05-02T10:20:59.037Z,37.65
2023-05-02T10:24:05.166Z,40.86
2023-05-02T10:27:08.812Z,37.75
2023-05-02T10:30:13.538Z,37.93
2023-05-02T10:33:17.608Z,37.53
2023-05-02T10:36:22.978Z,37.39
2023-05-02T10:39:28.013Z,37.07
2023-05-02T10:42:31.808Z,37.72
2023-05-02T10:45:38.409Z,38.60
2023-05-02T10:48:42.491Z,37.10
2023-05-02T10:51:45.990Z,36.53
2023-05-02T10:54:49.057Z,37.02
2023-05-02T10:57:58.785Z,38.16
2023-05-02T11:01:29.743Z,35.85
2023-05-02T11:05:05.344Z,38.85
2023-05-02T11:08:15.536Z,37.02
2023-05-02T11:11:40.980Z,37.59
2023-05-02T11:14:45.106Z,37.25
2023-05-02T11:18:01.848Z,36.89
2023-05-02T11:21:32.068Z,38.73
2023-05-02T11:24:43.007Z,37.14
2023-05-02T11:27:49.300Z,39.05
2023-05-02T11:30:52.592Z,39.56
2023-05-02T11:34:00.192Z,38.10
2023-05-02T11:40:39.024Z,39.82
2023-05-02T11:43:42.166Z,39.55
2023-05-02T11:46:45.903Z,39.26
2023-05-02T11:49:57.840Z,39.01
2023-05-02T11:50:12.268Z,39.30
2023-05-02T11:53:01.183Z,40.21
2023-05-02T11:56:05.110Z,39.96
2023-05-02T11:59:08.493Z,39.25
2023-05-02T12:02:12.243Z,39.74
2023-05-02T12:05:15.951Z,40.63
2023-05-02T12:08:30.142Z,39.77
2023-05-02T12:11:33.702Z,38.23
2023-05-02T12:14:38.108Z,38.85
2023-05-02T12:17:43.910Z,38.63
2023-05-02T12:20:47.802Z,39.40
2023-05-02T12:23:51.344Z,40.64
2023-05-02T12:27:14.827Z,40.92
2023-05-02T12:30:31.705Z,38.39
2023-05-02T12:33:43.362Z,39.47
2023-05-02T12:36:48.938Z,38.14
2023-05-02T12:39:53.574Z,41.48
2023-05-02T12:43:04.047Z,39.46
2023-05-02T12:46:11.326Z,40.04
2023-05-02T12:49:14.854Z,41.06
2023-05-02T12:52:47.180Z,39.75
2023-05-02T12:56:02.857Z,38.09
2023-05-02T12:59:06.390Z,38.92
2023-05-02T13:02:10.154Z,40.53
2023-05-02T13:05:17.210Z,38.78
2023-05-02T13:08:21.022Z,43.24
2023-05-02T13:11:24.486Z,39.01
2023-05-02T13:14:27.506Z,38.72
2023-05-02T13:17:31.031Z,40.60
2023-05-02T13:20:34.082Z,40.71
2023-05-02T13:23:39.524Z,40.24
2023-05-02T13:26:42.827Z,42.28
2023-05-02T13:29:46.379Z,41.66
2023-05-02T13:32:49.434Z,39.95
2023-05-02T13:35:53.073Z,40.77
2023-05-02T13:38:56.106Z,39.60
2023-05-02T13:41:59.592Z,40.08
2023-05-02T13:45:06.720Z,39.73
2023-05-02T13:48:09.723Z,40.01
2023-05-02T13:51:12.893Z,40.06
2023-05-02T13:54:16.240Z,39.71
2023-05-02T13:57:19.403Z,40.24
2023-05-02T14:00:22.310Z,41.24
2023-05-02T14:03:25.644Z,40.89
2023-05-02T14:06:28.705Z,43.26
2023-05-02T14:09:31.955Z,39.14
2023-05-02T14:12:34.848Z,40.14
2023-05-02T14:15:38.212Z,43.49
2023-05-02T14:18:41.914Z,42.96
2023-05-02T14:21:44.861Z,41.26
2023-05-02T14:24:47.760Z,42.91
2023-05-02T14:27:50.668Z,43.16
2023-05-02T14:30:54.153Z,47.46
2023-05-02T14:33:57.069Z,45.25
2023-05-02T14:37:00.207Z,45.67
2023-05-02T14:40:03.869Z,46.35
2023-05-02T14:43:08.459Z,47.08
2023-05-02T14:46:11.841Z,47.00
2023-05-02T14:49:15.241Z,47.74
2023-05-02T14:52:18.522Z,46.66
2023-05-02T14:55:21.818Z,46.21
2023-05-02T14:58:24.823Z,44.99
2023-05-02T15:01:27.908Z,47.51
2023-05-02T15:04:31.475Z,46.09
2023-05-02T15:07:34.621Z,46.03
2023-05-02T15:10:40.639Z,46.93
2023-05-02T15:13:48.602Z,47.34
2023-05-02T15:16:53.725Z,48.72
2023-05-02T15:19:58.535Z,48.40
2023-05-02T15:23:03.608Z,47.68
2023-05-02T15:26:07.160Z,49.21
2023-05-02T15:29:10.907Z,50.02
2023-05-02T15:32:14.994Z,51.29
2023-05-02T15:35:18.230Z,51.83
2023-05-02T15:38:22.255Z,51.89
2023-05-02T15:41:27.527Z,53.17
2023-05-02T15:44:30.913Z,52.85
2023-05-02T15:47:34.327Z,50.90
2023-05-02T15:50:37.660Z,52.19
2023-05-02T15:53:42.564Z,51.79
2023-05-02T15:56:46.760Z,51.83
2023-05-02T15:59:50.132Z,51.26
2023-05-02T16:03:04.032Z,51.71
2023-05-02T16:06:07.929Z,51.21
2023-05-02T16:09:12.995Z,51.70
2023-05-02T16:12:15.925Z,52.14
2023-05-02T16:15:19.500Z,53.22
2023-05-02T16:18:28.304Z,54.05
2023-05-02T16:21:31.873Z,54.64
2023-05-02T16:24:34.985Z,56.45
2023-05-02T16:27:37.857Z,55.24
2023-05-02T16:30:41.823Z,55.59
2023-05-02T16:33:44.973Z,55.73
2023-05-02T16:36:48.764Z,57.28
2023-05-02T16:39:52.403Z,58.69
2023-05-02T16:42:55.717Z,59.33
2023-05-02T16:46:03.645Z,59.88
2023-05-02T16:49:06.892Z,60.01
2023-05-02T16:52:10.222Z,61.22
2023-05-02T16:55:13.350Z,60.53
2023-05-02T16:58:16.466Z,60.47
2023-05-02T17:01:19.542Z,61.55
2023-05-02T17:04:22.942Z,61.92
2023-05-02T17:07:25.928Z,63.01
2023-05-02T17:10:32.979Z,64.26
2023-05-02T17:13:36.879Z,64.85
2023-05-02T17:16:41.195Z,65.39
2023-05-02T17:19:44.258Z,66.04
2023-05-02T17:22:47.857Z,66.76
2023-05-02T17:25:51.836Z,67.45
2023-05-02T17:28:55.676Z,67.44
2023-05-02T17:32:00.772Z,67.67
2023-05-02T17:35:03.806Z,68.20
2023-05-02T17:38:07.709Z,68.76
2023-05-02T17:41:11.837Z,69.09
2023-05-02T17:44:16.092Z,69.84
2023-05-02T17:47:20.186Z,70.37
2023-05-02T17:50:23.215Z,70.17
2023-05-02T17:53:26.616Z,70.13
2023-05-02T17:56:37.408Z,70.79
2023-05-02T17:59:41.766Z,70.85
2023-05-02T18:02:45.221Z,70.81
2023-05-02T18:05:48.596Z,71.32
2023-05-02T18:08:51.951Z,71.10
2023-05-02T18:11:58.678Z,71.40
2023-05-02T18:15:05.104Z,71.33
2023-05-02T18:18:08.656Z,71.64
2023-05-02T18:21:12.264Z,71.80
2023-05-02T18:24:15.288Z,71.52
2023-05-02T18:27:18.581Z,71.87
2023-05-02T18:30:21.648Z,72.11
2023-05-02T18:33:27.491Z,71.79
2023-05-02T18:36:32.081Z,72.17
2023-05-02T18:39:36.737Z,71.83
2023-05-02T18:42:39.905Z,71.98
2023-05-02T18:45:45.782Z,72.27
2023-05-02T18:48:48.953Z,72.97
2023-05-02T18:51:53.532Z,73.86
2023-05-02T18:54:56.492Z,74.01
2023-05-02T18:57:59.335Z,73.62
2023-05-02T19:01:12.016Z,73.73
2023-05-02T19:04:15.521Z,74.13
2023-05-02T19:07:18.807Z,74.03
2023-05-02T19:10:21.911Z,74.37
2023-05-02T19:13:27.234Z,75.02
2023-05-02T19:16:30.462Z,74.76
2023-05-02T19:19:33.905Z,75.35
2023-05-02T19:22:37.457Z,75.29
2023-05-02T19:25:40.799Z,76.02
2023-05-02T19:28:44.901Z,76.27
2023-05-02T19:31:48.147Z,76.52
2023-05-02T19:34:52.895Z,76.69
2023-05-02T19:37:55.996Z,76.79
2023-05-02T19:40:59.732Z,77.39
2023-05-02T19:44:02.947Z,77.85
2023-05-02T19:47:06.493Z,78.15
2023-05-02T19:50:10.714Z,77.59
2023-05-02T19:53:14.093Z,77.74
2023-05-02T19:56:17.221Z,77.93
2023-05-02T19:59:20.259Z,77.79
2023-05-02T20:02:23.570Z,78.07
2023-05-02T20:05:26.851Z,78.22
2023-05-02T20:08:31.457Z,78.72
2023-05-02T20:11:34.955Z,78.42
2023-05-02T20:14:37.974Z,78.63
2023-05-02T20:17:41.253Z,78.97
2023-05-02T20:20:44.812Z,79.62
2023-05-02T20:23:48.215Z,80.40
2023-05-02T20:26:51.491Z,80.77
2023-05-02T20:29:54.754Z,80.77
2023-05-02T20:33:10.466Z,82.12
2023-05-02T20:36:18.435Z,82.41
2023-05-02T20:39:22.035Z,82.83
2023-05-02T20:42:26.986Z,83.08
2023-05-02T20:45:29.942Z,83.30
2023-05-02T20:48:33.118Z,84.06
2023-05-02T20:51:36.670Z,83.71
2023-05-02T20:54:40.289Z,84.14
2023-05-02T20:57:45.693Z,84.85
2023-05-02T21:00:52.605Z,84.71
2023-05-02T21:03:57.238Z,84.90
2023-05-02T21:07:01.622Z,85.76
2023-05-02T21:10:05.252Z,86.25
2023-05-02T21:13:08.493Z,86.35
2023-05-02T21:16:18.885Z,86.49
2023-05-02T21:19:22.290Z,86.80
2023-05-02T21:22:25.458Z,86.65
2023-05-02T21:25:28.521Z,87.28
2023-05-02T21:28:31.599Z,87.19
2023-05-02T21:31:34.736Z,87.07
2023-05-02T21:34:37.886Z,87.56
2023-05-02T21:37:40.657Z,87.72
2023-05-02T21:40:44.109Z,87.44
2023-05-02T21:43:47.081Z,87.72
2023-05-02T21:46:51.343Z,87.79
2023-05-02T21:49:56.445Z,88.30
2023-05-02T21:52:59.665Z,87.94
2023-05-02T21:56:02.845Z,88.07
2023-05-02T21:59:06.713Z,88.49
2023-05-02T22:02:10.227Z,88.54
2023-05-02T22:05:14.077Z,88.73
2023-05-02T22:08:17.737Z,89.09
2023-05-02T22:11:21.872Z,88.77
2023-05-02T22:14:33.667Z,88.76
2023-05-02T22:17:46.195Z,89.05
2023-05-02T22:20:49.600Z,89.52
2023-05-02T22:23:53.349Z,90.50
2023-05-02T22:26:56.308Z,88.67
2023-05-02T22:30:00.046Z,89.19
2023-05-02T22:33:03.744Z,89.13
2023-05-02T22:36:07.285Z,89.01
2023-05-02T22:39:13.376Z,88.70
2023-05-02T22:42:17.262Z,89.28
2023-05-02T22:45:20.332Z,89.11
2023-05-02T22:48:23.883Z,89.14
2023-05-02T22:51:27.381Z,89.31
2023-05-02T22:54:30.664Z,89.50
2023-05-02T22:57:33.988Z,90.52
2023-05-02T23:00:37.324Z,89.01
2023-05-02T23:03:41.569Z,89.18
2023-05-02T23:06:45.470Z,89.28
2023-05-02T23:09:48.547Z,89.35
2023-05-02T23:12:51.989Z,90.15
2023-05-02T23:15:55.801Z,89.55
2023-05-02T23:18:58.968Z,90.52
2023-05-02T23:22:02.986Z,89.33
2023-05-02T23:25:07.950Z,90.12
2023-05-02T23:28:12.503Z,89.78
2023-05-02T23:31:15.827Z,88.64
2023-05-02T23:34:19.457Z,91.07
2023-05-02T23:37:24.108Z,90.42
2023-05-02T23:40:28.426Z,91.01
2023-05-02T23:43:31.937Z,90.05
2023-05-02T23:46:35.362Z,89.86
2023-05-02T23:49:38.667Z,90.47
2023-05-02T23:52:42.209Z,90.67
2023-05-02T23:55:45.198Z,90.95
2023-05-02T23:58:48.629Z,89.20
